Time;durP1;ratioP1;P1;durP2;ratioP2;P2;SDS_P1;SDS_P2;PMS_P1;PMS_P2;Temp;Humidity;BMP_temperature;BMP_pressure;BME280_temperature;BME280_humidity;BME280_pressure;Samples;Min_cycle;Max_cycle;Signal;HPM_P1;HPM_P2
2022/08/20 06:14:02;;;;;;;4.15;1.20;;;21.30;66.60;;;;;;6148014;23;20500;-75
2022/08/20 06:16:28;;;;;;;5.97;1.38;;;21.20;66.10;;;;;;6190933;23;20024;-75
2022/08/20 06:18:54;;;;;;;4.78;1.15;;;21.20;65.90;;;;;;6218473;23;20025;-74
2022/08/20 06:21:20;;;;;;;8.65;1.60;;;21.20;66.20;;;;;;6217670;23;20028;-76
2022/08/20 06:23:46;;;;;;;6.70;1.35;;;21.10;66.40;;;;;;6191956;23;20317;-73
2022/08/20 06:26:11;;;;;;;4.85;1.30;;;21.10;66.30;;;;;;6218080;23;20016;-77
2022/08/20 06:28:37;;;;;;;10.23;1.15;;;21.10;66.40;;;;;;6191801;23;20020;-74
2022/08/20 06:31:03;;;;;;;5.55;0.98;;;21.00;66.50;;;;;;6218020;23;20325;-77
2022/08/20 06:33:28;;;;;;;4.30;1.08;;;21.00;67.00;;;;;;6217642;23;20071;-76
2022/08/20 06:35:55;;;;;;;9.70;1.20;;;21.00;67.40;;;;;;6191871;23;20042;-79
2022/08/20 06:38:20;;;;;;;5.68;0.88;;;21.10;67.70;;;;;;6191898;23;20021;-77
2022/08/20 06:40:46;;;;;;;6.75;1.42;;;21.10;67.80;;;;;;6191268;23;20016;-78
2022/08/20 06:43:12;;;;;;;8.80;1.63;;;21.20;67.70;;;;;;6191398;23;20031;-78
2022/08/20 06:45:38;;;;;;;10.60;1.55;;;21.30;67.80;;;;;;6217185;23;20287;-75
2022/08/20 06:48:13;;;;;;;8.18;1.70;;;21.30;67.80;;;;;;6217868;23;20017;-77
2022/08/20 06:50:42;;;;;;;12.25;1.40;;;21.40;67.80;;;;;;6217406;23;20432;-77
2022/08/20 06:53:09;;;;;;;6.38;1.48;;;21.50;67.60;;;;;;6191678;23;20405;-78
2022/08/20 06:55:38;;;;;;;9.02;1.50;;;21.50;67.30;;;;;;6217742;23;20021;-77
2022/08/20 06:58:06;;;;;;;15.45;2.00;;;21.60;67.60;;;;;;6217458;23;20083;-77
2022/08/20 07:00:34;;;;;;;9.88;1.30;;;21.60;66.70;;;;;;6191900;23;20043;-76
2022/08/20 07:03:00;;;;;;;14.07;1.83;;;21.70;66.60;;;;;;6191222;23;20027;-79
2022/08/20 07:05:32;;;;;;;9.65;1.35;;;21.70;66.20;;;;;;6217372;23;20401;-78
2022/08/20 07:07:59;;;;;;;8.32;1.58;;;21.70;66.00;;;;;;6217678;23;20020;-79
2022/08/20 07:10:27;;;;;;;14.65;2.00;;;21.80;65.70;;;;;;6192286;23;20095;-76
2022/08/20 07:12:53;;;;;;;13.93;1.75;;;21.80;65.30;;;;;;6217790;23;20041;-76
2022/08/20 07:16:15;;;;;;;9.07;1.52;;;21.90;65.70;;;;;;6217575;23;20347;-76
2022/08/20 07:18:41;;;;;;;12.55;2.05;;;21.90;65.20;;;;;;6175580;23;20309;-79
2022/08/20 07:21:07;;;;;;;13.13;1.58;;;22.00;64.90;;;;;;6217718;23;20072;-76
2022/08/20 07:23:33;;;;;;;18.25;2.03;;;22.00;65.30;;;;;;6191193;23;20369;-74
2022/08/20 07:25:58;;;;;;;8.98;1.85;;;22.10;65.30;;;;;;6217761;23;20282;-75
2022/08/20 07:28:30;;;;;;;9.43;1.25;;;22.10;64.10;;;;;;6217594;23;20448;-75
2022/08/20 07:33:42;;;;;;;6.55;1.52;;;22.00;62.30;;;;;;6217592;23;20020;-76
2022/08/20 07:36:09;;;;;;;6.05;1.15;;;22.00;61.80;;;;;;6217213;23;20422;-73
2022/08/20 07:38:35;;;;;;;8.43;1.35;;;21.90;62.30;;;;;;6190258;23;20033;-76
2022/08/20 07:41:04;;;;;;;8.02;1.38;;;22.00;62.40;;;;;;6217694;23;20361;-75
2022/08/20 07:43:31;;;;;;;10.65;1.65;;;22.00;62.70;;;;;;6217107;23;20049;-75
2022/08/20 07:46:00;;;;;;;15.82;1.45;;;22.00;63.10;;;;;;6217772;23;20027;-75
2022/08/20 07:48:28;;;;;;;10.10;1.55;;;22.10;63.50;;;;;;6217529;23;20020;-73
2022/08/20 07:50:58;;;;;;;10.20;1.10;;;22.10;63.70;;;;;;6217737;23;20016;-74
2022/08/20 07:53:24;;;;;;;6.65;1.45;;;22.10;63.80;;;;;;6192888;23;20132;-74
2022/08/20 07:55:50;;;;;;;6.18;1.00;;;22.20;63.50;;;;;;6219534;23;20044;-74
2022/08/20 07:58:19;;;;;;;10.15;2.30;;;22.20;63.30;;;;;;6219031;23;20021;-74
2022/08/20 08:00:45;;;;;;;5.88;1.40;;;22.30;63.30;;;;;;6219326;23;20025;-75
2022/08/20 08:03:11;;;;;;;7.90;2.10;;;22.30;63.00;;;;;;6219420;23;20016;-75
2022/08/20 08:05:40;;;;;;;7.88;1.73;;;22.30;62.90;;;;;;6192825;23;20016;-74
2022/08/20 08:08:10;;;;;;;7.07;1.73;;;22.40;63.30;;;;;;6218368;23;20023;-74
2022/08/20 08:10:36;;;;;;;7.97;1.55;;;22.40;62.90;;;;;;6219060;23;20439;-74
2022/08/20 08:13:06;;;;;;;20.17;1.90;;;22.40;62.50;;;;;;6220319;23;20028;-74
2022/08/20 08:15:37;;;;;;;16.88;1.83;;;22.40;62.60;;;;;;6219013;23;20063;-73
2022/08/20 08:18:08;;;;;;;8.45;1.40;;;22.50;62.60;;;;;;6219053;23;20032;-74
2022/08/20 08:20:40;;;;;;;7.80;2.08;;;22.40;62.00;;;;;;6219128;23;20320;-74
2022/08/20 08:23:09;;;;;;;11.60;2.03;;;22.40;61.70;;;;;;6192649;23;20016;-74
2022/08/20 08:25:35;;;;;;;9.15;2.17;;;22.50;61.60;;;;;;6219439;23;20096;-76
2022/08/20 08:28:02;;;;;;;10.70;1.98;;;22.50;61.90;;;;;;6219083;23;20059;-74
2022/08/20 08:30:27;;;;;;;24.42;3.60;;;22.50;62.00;;;;;;6219803;23;20031;-74
2022/08/20 08:35:39;;;;;;;14.00;1.80;;;22.60;62.20;;;;;;6219080;23;20028;-74
2022/08/20 08:38:05;;;;;;;8.45;1.40;;;22.60;62.60;;;;;;6218740;23;20432;-74
2022/08/20 08:40:32;;;;;;;8.88;1.65;;;22.60;62.30;;;;;;6219008;23;20028;-74
2022/08/20 08:43:02;;;;;;;8.27;1.63;;;22.60;62.00;;;;;;6219306;23;20356;-74
2022/08/20 08:45:44;;;;;;;6.45;1.50;;;22.60;61.20;;;;;;6218936;23;20013;-75
2022/08/20 08:48:16;;;;;;;9.75;1.67;;;22.60;61.50;;;;;;6220097;23;20070;-73
2022/08/20 08:50:48;;;;;;;14.98;2.15;;;22.60;61.20;;;;;;6219537;23;20372;-77
2022/08/20 08:53:32;;;;;;;12.27;1.65;;;22.70;61.10;;;;;;6218880;23;20031;-73
2022/08/20 08:55:59;;;;;;;12.57;2.08;;;22.70;60.90;;;;;;6218862;23;20016;-76
2022/08/20 08:58:26;;;;;;;5.72;1.33;;;22.70;60.70;;;;;;6218906;23;20016;-75
2022/08/20 09:00:53;;;;;;;8.50;1.40;;;22.70;60.00;;;;;;6218869;23;20027;-75
2022/08/20 09:03:28;;;;;;;6.35;1.25;;;22.70;59.30;;;;;;6192242;23;20397;-76
2022/08/20 09:05:58;;;;;;;6.85;1.38;;;22.70;58.70;;;;;;6218630;23;20056;-74
2022/08/20 09:08:37;;;;;;;7.43;1.33;;;22.70;59.10;;;;;;6219560;23;20067;-74
2022/08/20 09:11:05;;;;;;;6.50;1.35;;;22.70;59.10;;;;;;6167763;23;20017;-73
2022/08/20 09:13:32;;;;;;;7.65;1.48;;;22.70;59.40;;;;;;6219297;23;20013;-74
2022/08/20 09:15:58;;;;;;;9.45;1.73;;;22.70;59.50;;;;;;6218192;23;20305;-73
2022/08/20 09:18:24;;;;;;;5.82;1.30;;;22.70;59.10;;;;;;6218901;23;20096;-74
2022/08/20 09:20:49;;;;;;;5.82;1.00;;;22.70;58.90;;;;;;6218752;23;20409;-77
2022/08/20 09:23:15;;;;;;;7.18;1.70;;;22.70;58.00;;;;;;6218891;23;20044;-76
2022/08/20 09:25:42;;;;;;;7.07;1.52;;;22.70;57.70;;;;;;6218533;23;20290;-74
2022/08/20 09:28:08;;;;;;;8.35;1.08;;;22.70;57.80;;;;;;6219369;23;20027;-74
2022/08/20 09:30:33;;;;;;;12.90;1.48;;;22.70;57.60;;;;;;6218289;23;20096;-75
2022/08/20 09:32:59;;;;;;;7.68;1.30;;;22.70;57.60;;;;;;6218248;23;20048;-73
2022/08/20 09:35:26;;;;;;;8.27;1.70;;;22.70;58.20;;;;;;6218338;23;20020;-74
2022/08/20 09:37:52;;;;;;;8.80;1.35;;;22.70;58.30;;;;;;6217251;23;20020;-75
2022/08/20 09:40:19;;;;;;;14.55;2.42;;;22.70;58.70;;;;;;6167210;23;20028;-74
2022/08/20 09:42:45;;;;;;;7.80;1.52;;;22.70;58.70;;;;;;6217906;23;20040;-74
2022/08/20 09:45:11;;;;;;;8.65;1.65;;;22.80;57.60;;;;;;6217712;23;20028;-74
2022/08/20 09:47:39;;;;;;;12.32;1.63;;;22.70;57.90;;;;;;6218013;23;20020;-74
2022/08/20 09:50:05;;;;;;;9.65;1.80;;;22.70;58.20;;;;;;6217850;23;20032;-74
2022/08/20 09:52:38;;;;;;;5.63;1.23;;;22.70;58.10;;;;;;6217582;23;20023;-75
2022/08/20 09:55:10;;;;;;;9.18;1.63;;;22.70;57.90;;;;;;6218375;23;20019;-74
2022/08/20 09:57:36;;;;;;;9.57;1.80;;;22.70;58.30;;;;;;6218218;23;20083;-74
2022/08/20 10:00:11;;;;;;;7.82;1.50;;;22.80;58.60;;;;;;6191713;23;20405;-74
2022/08/20 10:02:36;;;;;;;10.60;2.25;;;22.80;58.50;;;;;;6191475;23;20020;-74
2022/08/20 10:05:03;;;;;;;14.05;1.85;;;22.80;58.50;;;;;;6217779;23;20084;-78
2022/08/20 10:07:29;;;;;;;8.80;1.60;;;22.80;58.70;;;;;;6218103;23;20017;-74
2022/08/20 10:09:55;;;;;;;10.77;1.50;;;22.80;58.80;;;;;;6216928;23;20297;-74
2022/08/20 10:12:21;;;;;;;5.70;1.20;;;22.90;58.50;;;;;;6217101;23;20016;-73
2022/08/20 10:14:47;;;;;;;9.23;1.77;;;22.80;58.20;;;;;;6217525;23;20066;-73
2022/08/20 10:17:12;;;;;;;7.93;1.20;;;22.90;58.60;;;;;;6217682;23;20104;-73
2022/08/20 10:19:38;;;;;;;12.05;1.25;;;22.90;58.90;;;;;;6217955;23;20017;-73
2022/08/20 10:22:04;;;;;;;8.73;1.60;;;22.90;59.30;;;;;;6217739;23;20027;-75
2022/08/20 10:24:30;;;;;;;10.30;1.42;;;22.90;58.50;;;;;;6217704;23;20020;-73
2022/08/20 10:26:58;;;;;;;8.90;1.77;;;22.90;58.30;;;;;;6217953;23;20369;-73
2022/08/20 10:29:26;;;;;;;13.18;1.92;;;23.00;58.00;;;;;;6191438;23;20098;-73
2022/08/20 10:31:52;;;;;;;8.38;1.40;;;23.00;57.90;;;;;;6217781;23;20368;-73
2022/08/20 10:34:18;;;;;;;7.43;1.52;;;23.00;57.70;;;;;;6217652;23;20020;-73
2022/08/20 10:36:44;;;;;;;9.38;1.33;;;23.00;57.50;;;;;;6191553;23;20314;-74
2022/08/20 10:39:10;;;;;;;14.88;1.80;;;23.00;57.90;;;;;;6217891;23;20017;-75
2022/08/20 10:41:36;;;;;;;11.57;1.95;;;23.10;58.00;;;;;;6216857;23;20016;-75
2022/08/20 10:44:03;;;;;;;9.27;2.00;;;23.00;58.10;;;;;;6217727;23;20027;-75
2022/08/20 10:46:29;;;;;;;8.63;1.92;;;23.10;58.00;;;;;;6190862;23;20016;-75
2022/08/20 10:48:54;;;;;;;7.15;1.48;;;23.10;57.60;;;;;;6217744;23;20096;-72
2022/08/20 10:51:20;;;;;;;8.15;2.13;;;23.10;57.60;;;;;;6217731;23;20367;-73
2022/08/20 10:53:46;;;;;;;8.23;1.20;;;23.10;57.70;;;;;;6217262;23;20088;-73
2022/08/20 10:56:12;;;;;;;6.25;1.20;;;23.10;56.70;;;;;;6217189;23;20021;-73
2022/08/20 10:58:38;;;;;;;9.43;1.45;;;23.10;56.50;;;;;;6217709;23;20020;-73
2022/08/20 11:01:04;;;;;;;11.43;1.65;;;23.10;57.30;;;;;;6217418;23;20030;-73
2022/08/20 11:03:30;;;;;;;8.50;1.27;;;23.10;57.20;;;;;;6217426;23;20440;-74
2022/08/20 11:05:56;;;;;;;9.85;1.42;;;23.10;57.10;;;;;;6217195;23;20024;-73
2022/08/20 11:08:22;;;;;;;6.70;1.23;;;23.10;57.10;;;;;;6217758;23;20019;-72
2022/08/20 11:10:47;;;;;;;8.35;1.60;;;23.10;56.40;;;;;;6217263;23;20039;-74
2022/08/20 11:13:13;;;;;;;8.50;1.90;;;23.10;56.00;;;;;;6216711;23;20023;-73
2022/08/20 11:15:41;;;;;;;11.40;2.13;;;23.10;55.70;;;;;;6216928;23;20032;-74
2022/08/20 11:18:08;;;;;;;5.65;1.10;;;23.20;56.10;;;;;;6217081;23;20095;-73
2022/08/20 11:20:34;;;;;;;10.45;1.60;;;23.20;56.30;;;;;;6216771;23;20013;-73
2022/08/20 11:23:01;;;;;;;8.90;1.70;;;23.20;56.50;;;;;;6187787;23;20415;-74
2022/08/20 11:25:27;;;;;;;16.30;2.03;;;23.20;57.20;;;;;;6216516;23;20421;-73
2022/08/20 11:27:54;;;;;;;11.35;1.80;;;23.20;58.10;;;;;;6218549;23;20059;-75
2022/08/20 11:30:29;;;;;;;6.20;1.38;;;23.20;58.60;;;;;;6218087;23;20418;-76
2022/08/20 11:32:56;;;;;;;6.78;1.42;;;23.30;59.00;;;;;;6219602;23;20325;-74
2022/08/20 11:35:23;;;;;;;10.65;1.70;;;23.20;59.30;;;;;;6218937;23;20016;-77
2022/08/20 11:37:51;;;;;;;8.25;1.70;;;23.30;59.60;;;;;;6217994;23;20012;-74
2022/08/20 11:40:17;;;;;;;8.90;1.48;;;23.30;60.10;;;;;;6218738;23;20051;-77
2022/08/20 11:42:43;;;;;;;10.35;2.03;;;23.30;60.10;;;;;;6219494;23;20023;-76
2022/08/20 11:45:09;;;;;;;13.80;1.88;;;23.30;60.20;;;;;;6218950;23;20016;-77
2022/08/20 11:47:36;;;;;;;8.32;1.88;;;23.30;60.30;;;;;;6218960;23;20103;-73
2022/08/20 11:50:19;;;;;;;11.15;1.42;;;23.30;59.90;;;;;;6219160;23;20048;-78
2022/08/20 11:52:45;;;;;;;6.95;1.45;;;23.30;58.90;;;;;;6218936;23;20443;-77
2022/08/20 11:55:13;;;;;;;6.88;1.20;;;23.30;59.30;;;;;;6219093;23;20048;-76
2022/08/20 11:57:44;;;;;;;9.07;1.58;;;23.30;59.20;;;;;;6218870;23;20452;-78
2022/08/20 12:00:15;;;;;;;6.47;1.48;;;23.30;58.90;;;;;;6219224;23;20274;-77
2022/08/20 12:02:41;;;;;;;6.53;1.67;;;23.30;59.10;;;;;;6219004;23;20013;-77
2022/08/20 12:05:08;;;;;;;5.97;1.52;;;23.30;58.40;;;;;;6219016;23;20029;-81
2022/08/20 12:07:34;;;;;;;5.30;1.13;;;23.30;58.20;;;;;;6219424;23;20052;-80
2022/08/20 12:10:00;;;;;;;6.03;1.67;;;23.30;57.60;;;;;;6168244;23;20025;-76
2022/08/20 12:12:25;;;;;;;6.97;1.33;;;23.30;58.30;;;;;;6218753;23;20027;-77
2022/08/20 12:14:53;;;;;;;8.65;2.22;;;23.30;57.70;;;;;;6218927;23;20067;-76
2022/08/20 12:17:25;;;;;;;8.88;1.48;;;23.20;57.70;;;;;;6219297;23;20091;-76
2022/08/20 12:19:53;;;;;;;5.78;1.15;;;23.20;56.50;;;;;;6219046;23;20042;-78
2022/08/20 12:22:20;;;;;;;6.10;1.23;;;23.20;55.70;;;;;;6219147;23;20416;-77
2022/08/20 12:24:46;;;;;;;6.72;1.20;;;23.20;55.70;;;;;;6218590;23;20009;-77
2022/08/20 12:27:14;;;;;;;5.38;1.45;;;23.20;55.90;;;;;;6218680;23;20372;-74
2022/08/20 12:29:43;;;;;;;5.55;1.42;;;23.20;55.60;;;;;;6218845;23;20044;-71
2022/08/20 12:32:10;;;;;;;5.65;0.93;;;23.20;54.90;;;;;;6218509;23;20425;-75
2022/08/20 12:34:38;;;;;;;8.63;1.38;;;23.20;54.90;;;;;;6218827;23;20025;-74
2022/08/20 12:37:07;;;;;;;19.02;1.67;;;23.20;55.50;;;;;;6218843;23;20195;-76
2022/08/20 12:39:34;;;;;;;8.13;1.98;;;23.20;56.10;;;;;;6218632;23;20060;-77
2022/08/20 12:42:01;;;;;;;7.43;1.38;;;23.20;55.60;;;;;;6192575;23;20020;-78
2022/08/20 12:44:31;;;;;;;6.95;1.25;;;23.30;55.70;;;;;;6218693;23;20114;-76
2022/08/20 12:47:17;;;;;;;10.57;1.80;;;23.30;56.00;;;;;;6218462;23;20047;-76
2022/08/20 12:49:46;;;;;;;11.45;1.85;;;23.20;56.80;;;;;;6218905;23;20313;-76
2022/08/20 12:52:14;;;;;;;4.78;1.30;;;23.20;57.10;;;;;;6218593;23;20013;-76
2022/08/20 12:54:40;;;;;;;11.63;1.95;;;23.20;56.40;;;;;;6218725;23;20017;-79
2022/08/20 12:57:06;;;;;;;7.35;1.63;;;23.20;55.60;;;;;;6217918;23;20020;-73
2022/08/20 12:59:32;;;;;;;8.38;1.77;;;23.30;55.20;;;;;;6218582;23;20017;-77
2022/08/20 13:01:58;;;;;;;7.68;0.98;;;23.30;54.80;;;;;;6192419;23;20019;-79
2022/08/20 13:04:24;;;;;;;8.90;1.40;;;23.20;55.10;;;;;;6192191;23;20044;-77
2022/08/20 13:06:50;;;;;;;8.75;1.58;;;23.30;55.10;;;;;;6218924;23;20052;-78
2022/08/20 13:09:16;;;;;;;7.18;1.02;;;23.30;54.80;;;;;;6218420;23;20476;-75
2022/08/20 13:11:42;;;;;;;5.63;1.52;;;23.20;55.80;;;;;;6218862;23;20290;-73
2022/08/20 13:14:08;;;;;;;7.70;1.50;;;23.30;56.40;;;;;;6218257;23;20086;-74
2022/08/20 13:16:34;;;;;;;8.90;1.38;;;23.30;56.30;;;;;;6218292;23;20026;-75
2022/08/20 13:19:00;;;;;;;6.13;1.70;;;23.30;56.90;;;;;;6218287;23;20013;-77
2022/08/20 13:21:26;;;;;;;9.02;1.63;;;23.30;57.30;;;;;;6218216;23;20024;-78
2022/08/20 13:23:52;;;;;;;9.00;1.10;;;23.40;55.80;;;;;;6218641;23;20079;-75
2022/08/20 13:26:18;;;;;;;6.63;1.63;;;23.40;55.10;;;;;;6191807;23;20078;-76
2022/08/20 13:28:44;;;;;;;8.30;1.40;;;23.30;54.50;;;;;;6218190;23;20112;-74
2022/08/20 13:31:10;;;;;;;8.10;1.27;;;23.30;54.60;;;;;;6218354;23;20051;-76
2022/08/20 13:33:35;;;;;;;9.55;1.58;;;23.30;54.40;;;;;;6218840;23;20074;-78
2022/08/20 13:36:01;;;;;;;9.55;1.58;;;23.30;54.10;;;;;;6217836;23;20086;-76
2022/08/20 13:38:27;;;;;;;6.88;1.88;;;23.30;53.20;;;;;;6218399;23;20009;-77
2022/08/20 13:40:52;;;;;;;6.63;1.17;;;23.30;53.40;;;;;;6218115;23;20016;-75
2022/08/20 13:43:18;;;;;;;5.75;1.33;;;23.30;53.80;;;;;;6218153;23;20021;-76
2022/08/20 13:45:44;;;;;;;6.88;1.90;;;23.20;53.50;;;;;;6218301;23;20027;-76
2022/08/20 13:48:10;;;;;;;10.23;2.15;;;23.30;53.80;;;;;;6218062;23;20350;-77
2022/08/20 13:50:36;;;;;;;6.13;1.20;;;23.30;54.20;;;;;;6217644;23;20413;-78
2022/08/20 13:53:02;;;;;;;9.45;1.40;;;23.30;54.50;;;;;;6217714;23;20027;-76
2022/08/20 13:55:28;;;;;;;11.35;2.67;;;23.30;54.80;;;;;;6217984;23;20013;-75
2022/08/20 13:57:54;;;;;;;7.00;2.70;;;23.30;55.30;;;;;;6217851;23;20075;-76
2022/08/20 14:00:24;;;;;;;8.02;2.90;;;23.30;55.70;;;;;;6217976;23;20012;-74
2022/08/20 14:02:50;;;;;;;8.15;2.22;;;23.30;56.10;;;;;;6217405;23;20020;-78
2022/08/20 14:05:16;;;;;;;9.50;2.42;;;23.30;56.40;;;;;;6190855;23;20021;-78
2022/08/20 14:07:42;;;;;;;9.50;2.30;;;23.30;56.30;;;;;;6191264;23;20021;-77
2022/08/20 14:10:15;;;;;;;7.85;2.00;;;23.30;57.10;;;;;;6191676;23;20017;-73
2022/08/20 14:12:41;;;;;;;13.95;2.55;;;23.40;57.30;;;;;;6192004;23;20017;-74
2022/08/20 14:15:08;;;;;;;8.23;1.85;;;23.40;58.00;;;;;;6217418;23;20078;-76
2022/08/20 14:17:36;;;;;;;9.15;2.65;;;23.40;58.40;;;;;;6217356;23;20024;-78
2022/08/20 14:20:10;;;;;;;7.88;2.33;;;23.40;59.10;;;;;;6217765;23;20024;-74
2022/08/20 14:22:35;;;;;;;14.20;2.40;;;23.40;59.60;;;;;;6217641;23;20317;-74
2022/08/20 14:25:02;;;;;;;8.07;2.05;;;23.40;60.10;;;;;;6217846;23;20070;-77
2022/08/20 14:27:30;;;;;;;9.27;1.95;;;23.40;60.70;;;;;;6217537;23;20020;-74
2022/08/20 14:29:56;;;;;;;8.20;1.83;;;23.40;61.30;;;;;;6217725;23;20095;-73
2022/08/20 14:32:21;;;;;;;8.25;2.22;;;23.40;61.50;;;;;;6217177;23;20044;-74
2022/08/20 14:34:47;;;;;;;7.35;1.85;;;23.40;61.80;;;;;;6217654;23;20016;-73
2022/08/20 14:37:19;;;;;;;5.88;1.85;;;23.40;62.00;;;;;;6217906;23;20017;-74
2022/08/20 14:39:48;;;;;;;7.85;2.00;;;23.50;62.40;;;;;;6217148;23;20027;-74
2022/08/20 14:42:14;;;;;;;6.38;1.92;;;23.50;62.40;;;;;;6217237;23;20028;-73
2022/08/20 14:44:40;;;;;;;7.78;1.60;;;23.50;62.50;;;;;;6217502;23;20052;-73
2022/08/20 14:47:22;;;;;;;5.10;1.45;;;23.50;62.80;;;;;;6217482;23;20027;-73
2022/08/20 14:49:49;;;;;;;7.38;2.42;;;23.50;62.90;;;;;;6217250;23;20028;-74
2022/08/20 14:52:17;;;;;;;4.45;1.50;;;23.50;63.00;;;;;;6217330;23;20321;-74
2022/08/20 14:54:44;;;;;;;9.43;1.55;;;23.50;63.20;;;;;;6217622;23;20016;-73
2022/08/20 14:57:11;;;;;;;4.50;1.67;;;23.50;63.30;;;;;;6217341;23;20017;-74
2022/08/20 14:59:37;;;;;;;4.55;1.55;;;23.50;63.20;;;;;;6217525;23;20027;-73
2022/08/20 15:02:05;;;;;;;4.40;1.20;;;23.50;63.20;;;;;;6217533;23;20020;-74
2022/08/20 15:04:32;;;;;;;5.25;1.65;;;23.50;63.30;;;;;;6217843;23;20013;-74
2022/08/20 15:06:58;;;;;;;4.70;1.45;;;23.50;63.50;;;;;;6216417;23;20021;-74
2022/08/20 15:09:24;;;;;;;5.85;1.58;;;23.50;63.10;;;;;;6217338;23;20024;-77
2022/08/20 15:11:49;;;;;;;7.50;1.70;;;23.50;62.50;;;;;;6217143;23;20016;-77
2022/08/20 15:14:15;;;;;;;7.18;1.55;;;23.50;59.90;;;;;;6216736;23;20417;-78
2022/08/20 17:08:24;;;;;;;6.93;1.95;;;23.80;64.10;;;;;;6198608;23;20093;-73
2022/08/20 17:10:53;;;;;;;10.27;2.28;;;23.80;64.00;;;;;;6247735;23;20027;-73
2022/08/20 17:13:25;;;;;;;7.88;1.50;;;23.80;63.90;;;;;;6248901;23;20024;-74
2022/08/20 17:16:04;;;;;;;9.27;1.87;;;23.80;64.00;;;;;;6249304;23;20321;-74
2022/08/20 17:18:33;;;;;;;7.00;1.25;;;23.80;64.10;;;;;;6248072;23;20091;-73
2022/08/20 17:21:11;;;;;;;6.10;1.60;;;23.80;64.30;;;;;;6248616;23;20024;-73
2022/08/20 17:23:41;;;;;;;8.88;1.95;;;23.80;64.50;;;;;;6248665;23;20020;-73
2022/08/20 17:26:54;;;;;;;9.80;1.60;;;23.70;64.60;;;;;;6248355;23;20077;-74
2022/08/20 17:29:27;;;;;;;9.55;1.50;;;23.70;64.80;;;;;;6221828;23;20486;-74
2022/08/20 17:32:14;;;;;;;7.03;1.40;;;23.70;64.70;;;;;;6248560;23;20027;-74
2022/08/20 17:34:49;;;;;;;6.43;1.40;;;23.70;64.60;;;;;;6247687;23;20017;-74
2022/08/20 17:37:31;;;;;;;10.40;1.40;;;23.70;63.80;;;;;;6248958;23;20017;-75
2022/08/20 17:40:08;;;;;;;7.47;1.30;;;23.70;63.40;;;;;;6248482;23;20027;-74
2022/08/20 17:42:48;;;;;;;6.18;2.00;;;23.70;63.40;;;;;;6248198;23;20024;-75
2022/08/20 17:45:27;;;;;;;8.27;1.20;;;23.70;63.40;;;;;;6248198;23;20024;-75
2022/08/20 17:47:55;;;;;;;5.25;1.20;;;23.70;63.60;;;;;;6248457;23;20024;-74
2022/08/20 17:50:30;;;;;;;6.50;1.25;;;23.60;63.20;;;;;;6248808;23;20062;-75
2022/08/20 17:53:18;;;;;;;8.38;1.30;;;23.70;63.30;;;;;;6248483;23;20012;-75
2022/08/20 17:55:48;;;;;;;4.75;1.20;;;23.70;63.30;;;;;;6227579;23;20309;-73
2022/08/20 17:58:16;;;;;;;4.20;0.98;;;23.70;62.70;;;;;;6248061;23;20107;-73
2022/08/20 18:00:43;;;;;;;7.43;1.67;;;23.70;62.90;;;;;;6248495;23;20096;-73
2022/08/20 18:03:14;;;;;;;9.05;1.35;;;23.70;62.50;;;;;;6248344;23;20020;-73
2022/08/20 18:05:42;;;;;;;6.43;0.98;;;23.70;62.60;;;;;;6248481;23;20031;-72
2022/08/20 18:08:16;;;;;;;7.07;1.25;;;23.70;62.50;;;;;;6247737;23;20091;-73
2022/08/20 18:10:55;;;;;;;5.15;1.35;;;23.70;62.60;;;;;;6247943;23;20478;-72
2022/08/20 18:13:35;;;;;;;6.88;0.90;;;23.70;62.60;;;;;;6247742;23;20433;-79
2022/08/20 18:16:03;;;;;;;6.22;1.50;;;23.60;61.80;;;;;;6248416;23;20016;-76
2022/08/20 18:18:41;;;;;;;9.77;1.42;;;23.60;60.90;;;;;;6248103;23;20074;-76
2022/08/20 18:21:19;;;;;;;9.50;1.23;;;23.60;60.50;;;;;;6248420;23;20024;-76
2022/08/20 18:23:56;;;;;;;11.02;1.27;;;23.60;60.30;;;;;;6247643;23;20145;-76
2022/08/20 18:26:31;;;;;;;4.88;0.90;;;23.60;60.30;;;;;;6248481;23;20016;-76
2022/08/20 18:29:09;;;;;;;9.07;1.30;;;23.60;60.30;;;;;;6221838;23;20027;-76
2022/08/20 18:31:53;;;;;;;4.90;1.33;;;23.60;60.20;;;;;;6247906;23;20016;-76
2022/08/20 18:34:20;;;;;;;4.68;1.25;;;23.60;60.60;;;;;;6248207;23;20082;-76
2022/08/20 18:36:59;;;;;;;5.78;1.25;;;23.60;60.80;;;;;;6247939;23;20031;-77
2022/08/20 18:39:31;;;;;;;4.03;1.60;;;23.60;60.90;;;;;;6248022;23;20304;-75
2022/08/20 18:41:57;;;;;;;4.55;0.95;;;23.60;61.20;;;;;;6247997;23;20094;-77
2022/08/20 18:44:28;;;;;;;6.05;1.27;;;23.60;61.20;;;;;;6248015;23;20444;-76
2022/08/20 18:46:57;;;;;;;7.75;1.38;;;23.60;61.10;;;;;;6220991;23;20092;-75
2022/08/20 18:49:29;;;;;;;5.05;0.98;;;23.60;61.00;;;;;;6247360;23;20282;-76
2022/08/20 18:51:57;;;;;;;6.47;1.10;;;23.60;61.00;;;;;;6247067;23;20016;-76
2022/08/20 18:54:30;;;;;;;4.53;1.02;;;23.60;61.40;;;;;;6248261;23;20027;-76
2022/08/20 18:57:16;;;;;;;3.58;1.00;;;23.60;61.60;;;;;;6247212;23;20038;-77
2022/08/20 18:59:47;;;;;;;2.60;1.42;;;23.60;61.60;;;;;;6247500;23;20114;-76
2022/08/20 19:02:23;;;;;;;2.63;1.02;;;23.60;61.80;;;;;;6247877;23;20069;-77
2022/08/20 19:04:54;;;;;;;3.45;0.73;;;23.60;61.90;;;;;;6247773;23;20024;-75
2022/08/20 19:07:22;;;;;;;3.85;1.25;;;23.60;62.10;;;;;;6246661;23;20020;-77
2022/08/20 19:10:08;;;;;;;7.82;1.42;;;23.70;62.20;;;;;;6215805;23;20435;-76
2022/08/20 19:12:42;;;;;;;3.28;1.10;;;23.60;62.40;;;;;;6217189;23;20066;-77
2022/08/20 19:15:15;;;;;;;3.78;1.30;;;23.60;62.50;;;;;;6217451;23;20016;-75
2022/08/20 19:18:03;;;;;;;3.03;0.93;;;23.70;62.50;;;;;;6191556;23;20017;-79
2022/08/20 19:20:32;;;;;;;6.32;1.08;;;23.60;62.50;;;;;;6217228;23;20312;-76
2022/08/20 19:23:10;;;;;;;4.03;0.80;;;23.60;62.60;;;;;;6217348;23;20015;-77
2022/08/20 19:25:41;;;;;;;2.50;0.90;;;23.60;62.60;;;;;;6217234;23;20012;-77
2022/08/20 19:28:27;;;;;;;2.58;0.80;;;23.60;62.50;;;;;;6217738;23;20023;-77
2022/08/20 19:30:54;;;;;;;3.40;0.80;;;23.60;62.50;;;;;;6216985;23;20487;-77
2022/08/20 19:33:29;;;;;;;3.53;0.70;;;23.60;62.60;;;;;;6217383;23;20453;-75
2022/08/20 19:36:09;;;;;;;5.05;1.02;;;23.60;62.60;;;;;;6217222;23;20020;-76
2022/08/20 19:38:42;;;;;;;3.53;0.80;;;23.60;62.60;;;;;;6216914;23;20017;-75
2022/08/20 19:41:08;;;;;;;4.15;1.20;;;23.60;62.70;;;;;;6217236;23;20046;-74
2022/08/20 19:43:42;;;;;;;4.03;0.77;;;23.60;62.70;;;;;;6216828;23;20028;-76
2022/08/20 19:46:08;;;;;;;3.95;1.13;;;23.60;62.80;;;;;;6217159;23;20301;-75
2022/08/20 19:49:04;;;;;;;3.85;0.98;;;23.60;62.60;;;;;;6218534;23;20024;-78
2022/08/20 19:52:07;;;;;;;3.28;0.90;;;23.60;62.60;;;;;;6163178;23;20099;-79
2022/08/20 19:54:41;;;;;;;3.80;1.40;;;23.60;62.80;;;;;;6218867;23;20056;-78
2022/08/20 19:57:10;;;;;;;3.63;1.13;;;23.60;62.90;;;;;;6219162;23;20035;-80
2022/08/20 19:59:36;;;;;;;3.72;1.30;;;23.60;63.00;;;;;;6219346;23;20301;-76
2022/08/20 20:02:15;;;;;;;3.33;0.70;;;23.50;63.00;;;;;;6218830;23;20103;-77
2022/08/20 20:04:42;;;;;;;3.20;0.90;;;23.50;63.10;;;;;;6219051;23;20365;-77
2022/08/20 20:07:17;;;;;;;2.30;0.90;;;23.50;63.10;;;;;;6218950;23;20028;-78
2022/08/20 20:09:44;;;;;;;4.20;0.98;;;23.50;63.10;;;;;;6239906;23;20313;-77
2022/08/20 20:12:13;;;;;;;2.78;0.80;;;23.50;63.10;;;;;;6249217;23;20086;-78
2022/08/20 20:14:39;;;;;;;3.17;0.95;;;23.50;63.20;;;;;;6249254;23;20012;-78
2022/08/20 20:17:06;;;;;;;2.58;0.98;;;23.50;63.20;;;;;;6222620;23;20312;-78
2022/08/20 20:19:55;;;;;;;2.17;0.90;;;23.50;63.20;;;;;;6249027;23;20091;-76
2022/08/20 20:22:24;;;;;;;1.70;0.75;;;23.50;63.10;;;;;;6248693;23;20063;-77
2022/08/20 20:25:04;;;;;;;3.60;1.05;;;23.50;63.10;;;;;;6249278;23;20051;-79
2022/08/20 20:27:39;;;;;;;3.58;1.10;;;23.50;63.10;;;;;;6248386;23;20016;-79
2022/08/20 20:30:12;;;;;;;1.85;0.75;;;23.50;63.00;;;;;;6248937;23;20028;-77
2022/08/20 20:32:42;;;;;;;4.07;1.25;;;23.50;63.00;;;;;;6222753;23;20024;-77
2022/08/20 20:35:09;;;;;;;5.07;1.38;;;23.50;63.10;;;;;;6249170;23;20112;-77
2022/08/20 20:37:38;;;;;;;3.55;1.13;;;23.50;63.10;;;;;;6249222;23;20016;-76
2022/08/20 20:40:26;;;;;;;3.35;1.30;;;23.50;63.40;;;;;;6249042;23;20095;-76
2022/08/20 20:43:06;;;;;;;4.70;1.42;;;23.40;63.30;;;;;;6249460;23;20083;-76
2022/08/20 20:45:40;;;;;;;4.10;1.30;;;23.50;63.40;;;;;;6249451;23;20016;-76
2022/08/20 20:48:41;;;;;;;5.65;1.55;;;23.50;63.50;;;;;;6248647;23;20051;-79
2022/08/20 20:51:23;;;;;;;3.55;1.60;;;23.40;63.40;;;;;;6201126;23;20044;-77
2022/08/20 20:53:50;;;;;;;3.63;1.52;;;23.40;63.50;;;;;;6248473;23;20424;-78
2022/08/20 20:56:27;;;;;;;5.75;1.80;;;23.40;63.50;;;;;;6249051;23;20020;-76
2022/08/20 20:58:52;;;;;;;3.63;1.50;;;23.40;63.50;;;;;;6248433;23;20016;-83
2022/08/20 21:01:18;;;;;;;4.22;1.20;;;23.40;63.40;;;;;;6222516;23;20020;-78
2022/08/20 21:03:44;;;;;;;4.43;1.67;;;23.40;63.40;;;;;;6249174;23;20088;-76
2022/08/20 21:06:09;;;;;;;4.57;1.73;;;23.40;63.30;;;;;;6248352;23;20020;-77
2022/08/20 21:08:35;;;;;;;6.07;1.70;;;23.40;63.30;;;;;;6248903;23;20020;-76